createdAt,value
2018-04-16T04:43:42.820Z,42.02
2018-04-16T04:44:52.231Z,41.94
2018-04-16T04:46:01.654Z,42.04
2018-04-16T04:47:10.869Z,42.14
2018-04-16T04:48:20.031Z,42.12
2018-04-16T04:49:29.169Z,42.12
2018-04-16T04:50:38.827Z,42.14
2018-04-16T04:51:48.504Z,42.14
2018-04-16T04:52:57.697Z,42.24
2018-04-16T04:54:06.982Z,42.24
2018-04-16T04:55:16.384Z,42.14
2018-04-16T04:56:25.543Z,42.14
2018-04-16T04:57:34.973Z,41.94
2018-04-16T04:58:44.412Z,42.04
2018-04-16T04:59:53.826Z,41.94
2018-04-16T05:01:03.280Z,42.14
2018-04-16T05:02:12.695Z,42.24
2018-04-16T05:03:22.123Z,42.43
2018-04-16T05:04:31.277Z,42.14
2018-04-16T05:05:40.696Z,41.85
2018-04-16T05:06:50.421Z,41.94
2018-04-16T05:07:59.347Z,42.14
2018-04-16T05:09:08.241Z,42.14
2018-04-16T05:10:17.143Z,42.24
2018-04-16T05:11:27.092Z,41.94
2018-04-16T05:12:36.523Z,42.04
2018-04-16T05:13:46.187Z,42.43
2018-04-16T05:14:55.627Z,42.04
2018-04-16T05:16:04.783Z,42.43
2018-04-16T05:17:14.197Z,42.04
2018-04-16T05:18:22.843Z,42.04
2018-04-16T05:19:31.986Z,41.94
2018-04-16T05:20:41.416Z,42.04
2018-04-16T05:21:50.820Z,41.94
2018-04-16T05:22:59.497Z,42.04
2018-04-16T05:24:08.899Z,42.14
2018-04-16T05:25:18.563Z,41.75
2018-04-16T05:26:27.452Z,41.85
2018-04-16T05:27:37.136Z,42.24
2018-04-16T05:28:47.079Z,41.85
2018-04-16T05:29:56.245Z,41.75
2018-04-16T05:31:05.395Z,41.75
2018-04-16T05:32:14.821Z,41.85
2018-04-16T05:33:24.246Z,42.24
2018-04-16T05:34:33.416Z,42.14
2018-04-16T05:35:42.834Z,41.85
2018-04-16T05:36:51.997Z,41.75
2018-04-16T05:38:01.679Z,41.85
2018-04-16T05:39:11.390Z,41.75
2018-04-16T05:40:21.097Z,41.75
2018-04-16T05:41:30.253Z,41.85
2018-04-16T05:42:39.926Z,41.85
2018-04-16T05:43:49.603Z,41.94
2018-04-16T05:44:59.580Z,41.85
2018-04-16T05:46:09.555Z,41.85
2018-04-16T05:47:19.235Z,41.85
2018-04-16T05:48:28.134Z,41.75
2018-04-16T05:49:37.820Z,41.85
2018-04-16T05:50:47.244Z,41.75
2018-04-16T05:51:56.916Z,41.94
2018-04-16T05:53:06.327Z,41.94
2018-04-16T05:54:15.747Z,41.85
2018-04-16T05:55:25.168Z,41.94
2018-04-16T05:56:34.349Z,41.85
2018-04-16T05:57:43.770Z,41.85
2018-04-16T05:58:53.703Z,41.85
2018-04-16T06:00:02.862Z,41.94
2018-04-16T06:01:12.279Z,41.94
2018-04-16T06:02:21.983Z,41.75
2018-04-16T06:03:31.137Z,42.04
2018-04-16T06:04:40.292Z,41.94
2018-04-16T06:05:49.721Z,41.94
2018-04-16T06:06:58.618Z,42.04
2018-04-16T06:08:08.042Z,41.94
2018-04-16T06:09:17.709Z,41.75
2018-04-16T06:10:27.925Z,42.04
2018-04-16T06:11:37.594Z,41.94
2018-04-16T06:12:46.741Z,41.75
2018-04-16T06:13:55.650Z,41.94
2018-04-16T06:15:05.334Z,41.94
2018-04-16T06:16:14.524Z,42.04
2018-04-16T06:17:23.676Z,42.04
2018-04-16T06:18:32.374Z,42.04
2018-04-16T06:19:41.799Z,41.75
2018-04-16T06:20:51.468Z,41.75
2018-04-16T06:22:00.871Z,41.85
2018-04-16T06:23:10.285Z,41.94
2018-04-16T06:24:19.954Z,42.04
2018-04-16T06:25:29.373Z,41.85
2018-04-16T06:26:39.067Z,41.85
2018-04-16T06:27:48.500Z,41.75
2018-04-16T06:28:57.415Z,41.85
2018-04-16T06:30:06.828Z,41.85
2018-04-16T06:31:16.239Z,41.85
2018-04-16T06:32:25.131Z,41.94
2018-04-16T06:33:34.585Z,41.85
2018-04-16T06:34:44.050Z,41.94
2018-04-16T06:35:53.725Z,41.75
2018-04-16T06:37:03.193Z,41.85
2018-04-16T06:38:12.875Z,41.85
2018-04-16T06:39:21.535Z,41.85
2018-04-16T06:40:30.956Z,41.85
2018-04-16T06:41:40.666Z,41.85
2018-04-16T06:42:50.603Z,41.75
2018-04-16T06:44:00.289Z,41.75
2018-04-16T06:45:09.986Z,41.85
2018-04-16T06:46:19.393Z,41.85
2018-04-16T06:47:28.551Z,41.94
2018-04-16T06:48:37.990Z,41.85
2018-04-16T06:49:47.680Z,41.85
2018-04-16T06:50:57.370Z,41.85
2018-04-16T06:52:06.301Z,41.94
2018-04-16T06:53:14.942Z,41.85
2018-04-16T06:54:24.361Z,41.94
2018-04-16T06:55:34.031Z,41.94
2018-04-16T06:56:43.444Z,41.85
2018-04-16T06:57:52.852Z,41.94
2018-04-16T06:59:02.531Z,41.85
2018-04-16T07:00:12.262Z,41.94
2018-04-16T07:01:21.998Z,41.94
2018-04-16T07:02:31.494Z,41.85
2018-04-16T07:03:40.659Z,41.94
2018-04-16T07:04:49.584Z,41.85
2018-04-16T07:05:59.619Z,42.04
2018-04-16T07:07:09.348Z,41.85
2018-04-16T07:08:19.384Z,41.94
2018-04-16T07:09:28.823Z,41.85
2018-04-16T07:10:38.785Z,41.94
2018-04-16T07:11:48.721Z,41.94
2018-04-16T07:12:57.871Z,41.85
2018-04-16T07:14:07.295Z,41.85
2018-04-16T07:15:17.239Z,41.85
2018-04-16T07:16:26.693Z,41.85
2018-04-16T07:17:35.625Z,41.94
2018-04-16T07:18:45.310Z,41.85
2018-04-16T07:19:54.990Z,41.85
2018-04-16T07:21:04.498Z,41.85
2018-04-16T07:22:14.188Z,41.85
2018-04-16T07:23:23.892Z,41.75
2018-04-16T07:24:33.040Z,41.75
2018-04-16T07:25:42.788Z,41.75
2018-04-16T07:26:52.204Z,41.75
2018-04-16T07:28:01.123Z,41.75
2018-04-16T07:29:10.567Z,42.04
2018-04-16T07:30:20.010Z,41.75
2018-04-16T07:31:29.426Z,41.75
2018-04-16T07:32:38.838Z,41.75
2018-04-16T07:33:47.990Z,41.75
2018-04-16T07:34:57.663Z,42.04
2018-04-16T07:36:07.359Z,41.75
2018-04-16T07:37:16.784Z,41.75
2018-04-16T07:38:26.470Z,41.75
2018-04-16T07:39:35.914Z,42.14
2018-04-16T07:40:45.341Z,42.14
2018-04-16T07:41:54.557Z,41.75
2018-04-16T07:43:04.242Z,41.94
2018-04-16T07:44:13.148Z,41.75
2018-04-16T07:45:22.839Z,41.75
2018-04-16T07:46:31.748Z,41.94
2018-04-16T07:47:41.163Z,41.94
2018-04-16T07:48:50.331Z,41.85
2018-04-16T07:49:59.478Z,41.75
2018-04-16T07:51:08.904Z,41.75
2018-04-16T07:52:18.333Z,41.75
2018-04-16T07:53:27.503Z,42.04
2018-04-16T07:54:37.189Z,41.75
2018-04-16T07:55:46.868Z,42.14
2018-04-16T07:56:56.017Z,41.66
2018-04-16T07:58:05.438Z,41.75
2018-04-16T07:59:14.855Z,41.66
2018-04-16T08:00:24.551Z,42.04
2018-04-16T08:01:33.984Z,42.04
2018-04-16T08:02:42.879Z,42.04
2018-04-16T08:03:52.039Z,42.04
2018-04-16T08:05:00.950Z,41.94
2018-04-16T08:06:10.123Z,41.94
2018-04-16T08:07:19.545Z,41.85
2018-04-16T08:08:28.958Z,41.75
2018-04-16T08:09:38.130Z,41.66
2018-04-16T08:10:47.539Z,41.85
2018-04-16T08:11:56.978Z,41.66
2018-04-16T08:13:06.398Z,41.66
2018-04-16T08:14:15.552Z,41.85
2018-04-16T08:15:24.787Z,41.66
2018-04-16T08:16:33.950Z,41.66
2018-04-16T08:17:42.856Z,41.85
2018-04-16T08:18:52.018Z,41.75
2018-04-16T08:20:01.187Z,41.75
2018-04-16T08:21:10.088Z,41.75
2018-04-16T08:22:19.820Z,41.85
2018-04-16T08:23:28.964Z,41.75
2018-04-16T08:24:38.377Z,41.75
2018-04-16T08:25:47.802Z,41.75
2018-04-16T08:26:56.973Z,41.75
2018-04-16T08:28:06.197Z,41.75
2018-04-16T08:29:15.113Z,41.75
2018-04-16T08:30:24.969Z,41.75
2018-04-16T08:31:34.392Z,41.75
2018-04-16T08:32:44.064Z,41.75
2018-04-16T08:33:53.736Z,41.75
2018-04-16T08:35:02.715Z,41.75
2018-04-16T08:36:12.437Z,41.94
2018-04-16T08:37:21.344Z,41.77
2018-04-16T08:38:30.241Z,41.85
2018-04-16T08:39:39.943Z,41.75
2018-04-16T08:40:49.884Z,41.75
2018-04-16T08:41:59.315Z,41.85
2018-04-16T08:43:08.806Z,41.75
2018-04-16T08:44:17.978Z,41.85
2018-04-16T08:45:26.725Z,41.94
2018-04-16T08:46:36.422Z,41.85
2018-04-16T08:47:45.836Z,41.75
2018-04-16T08:48:55.274Z,41.75
2018-04-16T08:50:04.231Z,41.75
2018-04-16T08:51:13.154Z,41.66
2018-04-16T08:52:22.578Z,41.75
2018-04-16T08:53:31.749Z,41.75
2018-04-16T08:54:41.482Z,41.75
2018-04-16T08:55:50.655Z,41.94
2018-04-16T08:57:00.360Z,41.85
2018-04-16T08:58:09.273Z,41.75
2018-04-16T08:59:18.443Z,42.04
2018-04-16T09:00:27.867Z,41.94
2018-04-16T09:01:37.442Z,41.94
2018-04-16T09:02:46.859Z,41.85
2018-04-16T09:03:56.800Z,41.66
2018-04-16T09:05:05.995Z,41.94
2018-04-16T09:06:14.903Z,42.04
2018-04-16T09:07:24.390Z,42.04
2018-04-16T09:08:33.558Z,42.14
2018-04-16T09:09:43.657Z,42.14
2018-04-16T09:10:52.809Z,42.14
2018-04-16T09:12:02.227Z,42.04
2018-04-16T09:13:11.663Z,42.04
2018-04-16T09:14:20.833Z,41.66
2018-04-16T09:15:30.538Z,41.66
2018-04-16T09:16:39.968Z,41.46
2018-04-16T09:17:49.138Z,41.85
2018-04-16T09:18:58.058Z,42.04
2018-04-16T09:20:07.748Z,41.56
2018-04-16T09:21:16.917Z,41.66
2018-04-16T09:22:26.621Z,41.66
2018-04-16T09:23:36.044Z,41.66
2018-04-16T09:24:45.726Z,41.46
2018-04-16T09:25:55.173Z,41.56
2018-04-16T09:27:04.601Z,41.66
2018-04-16T09:28:13.789Z,41.66
2018-04-16T09:29:23.493Z,41.36
2018-04-16T09:30:32.665Z,41.66
2018-04-16T09:31:41.844Z,41.66
2018-04-16T09:32:51.554Z,41.66
2018-04-16T09:34:01.331Z,41.66
2018-04-16T09:35:10.556Z,41.94
2018-04-16T09:36:20.248Z,41.56
2018-04-16T09:37:29.670Z,41.66
2018-04-16T09:38:38.568Z,41.66
2018-04-16T09:39:48.237Z,41.85
2018-04-16T09:40:57.154Z,41.66
2018-04-16T09:42:06.564Z,41.66
2018-04-16T09:43:15.468Z,41.36
2018-04-16T09:44:24.878Z,41.66
2018-04-16T09:45:34.049Z,41.46
2018-04-16T09:46:43.752Z,41.66
2018-04-16T09:47:53.429Z,41.27
2018-04-16T09:49:02.856Z,41.46
2018-04-16T09:50:12.796Z,41.56
2018-04-16T09:51:22.329Z,41.46
2018-04-16T09:52:31.792Z,41.27
2018-04-16T09:53:40.970Z,41.46
2018-04-16T09:54:50.390Z,41.66
2018-04-16T09:56:00.178Z,41.36
2018-04-16T09:57:09.097Z,41.36
2018-04-16T09:58:18.244Z,41.46
2018-04-16T09:59:27.443Z,41.56
2018-04-16T10:00:37.117Z,41.27
2018-04-16T10:01:46.567Z,41.46
2018-04-16T10:02:55.995Z,41.46
2018-04-16T10:04:05.434Z,41.36
2018-04-16T10:05:15.116Z,41.46
2018-04-16T10:06:24.279Z,41.46
2018-04-16T10:07:33.978Z,41.46
2018-04-16T10:08:43.175Z,41.27
2018-04-16T10:09:52.335Z,41.46
2018-04-16T10:11:01.249Z,41.46
2018-04-16T10:12:10.654Z,41.46
2018-04-16T10:13:20.058Z,41.48
2018-04-16T10:14:29.235Z,41.56
2018-04-16T10:15:38.652Z,41.46
2018-04-16T10:16:48.063Z,41.36
2018-04-16T10:17:57.304Z,41.46
2018-04-16T10:19:06.868Z,41.36
2018-04-16T10:20:15.803Z,41.27
2018-04-16T10:21:25.732Z,41.46
2018-04-16T10:22:35.172Z,41.56
2018-04-16T10:23:44.095Z,41.36
2018-04-16T10:24:53.280Z,41.46
2018-04-16T10:26:02.953Z,41.36
2018-04-16T10:27:12.645Z,41.56
2018-04-16T10:28:22.424Z,41.56
2018-04-16T10:29:31.865Z,41.36
2018-04-16T10:30:41.305Z,41.39
2018-04-16T10:31:50.295Z,41.36
2018-04-16T10:33:00.215Z,41.27
2018-04-16T10:34:10.022Z,41.27
2018-04-16T10:35:19.841Z,41.17
2018-04-16T10:36:29.521Z,41.36
2018-04-16T10:37:38.680Z,41.27
2018-04-16T10:38:48.104Z,41.46
2018-04-16T10:39:57.327Z,41.46
2018-04-16T10:41:06.744Z,41.36
2018-04-16T10:42:16.853Z,41.46
2018-04-16T10:43:26.536Z,41.46
2018-04-16T10:44:36.206Z,41.46
2018-04-16T10:45:45.615Z,41.46
2018-04-16T10:46:54.779Z,41.27
2018-04-16T10:48:04.221Z,41.46
2018-04-16T10:49:13.122Z,41.27
2018-04-16T10:50:22.550Z,41.56
2018-04-16T10:51:31.720Z,41.46
2018-04-16T10:52:40.899Z,41.36
2018-04-16T10:53:50.890Z,41.36
2018-04-16T10:55:00.307Z,41.46
2018-04-16T10:56:09.994Z,41.36
2018-04-16T10:57:19.693Z,41.46
2018-04-16T10:58:29.380Z,41.46
2018-04-16T10:59:38.841Z,41.27
2018-04-16T11:00:48.286Z,41.36
2018-04-16T11:01:57.785Z,41.56
2018-04-16T11:03:07.719Z,41.27
2018-04-16T11:04:17.393Z,41.56
2018-04-16T11:05:26.811Z,41.27
2018-04-16T11:06:36.749Z,41.46
2018-04-16T11:07:46.162Z,41.27
2018-04-16T11:08:55.062Z,41.36
2018-04-16T11:10:04.261Z,41.46
2018-04-16T11:11:13.713Z,41.36
2018-04-16T11:12:22.629Z,41.36
2018-04-16T11:13:31.291Z,41.36
2018-04-16T11:14:40.725Z,41.36
2018-04-16T11:15:49.911Z,41.36
2018-04-16T11:16:58.835Z,41.36
2018-04-16T11:18:08.258Z,41.27
2018-04-16T11:19:17.749Z,41.36
2018-04-16T11:20:27.491Z,41.27
2018-04-16T11:21:36.913Z,41.46
2018-04-16T11:22:46.360Z,41.56
2018-04-16T11:23:55.542Z,41.36
2018-04-16T11:25:05.480Z,41.36
2018-04-16T11:26:15.146Z,41.27
2018-04-16T11:27:24.851Z,41.27
2018-04-16T11:28:34.516Z,41.36
2018-04-16T11:29:43.679Z,41.36
2018-04-16T11:30:53.619Z,41.36
2018-04-16T11:32:03.559Z,41.56
2018-04-16T11:33:12.990Z,41.36
2018-04-16T11:34:22.136Z,41.27
2018-04-16T11:35:31.829Z,41.36
2018-04-16T11:36:40.982Z,41.27
2018-04-16T11:37:50.443Z,41.46
2018-04-16T11:38:59.901Z,41.36
2018-04-16T11:40:08.813Z,41.27
2018-04-16T11:41:18.502Z,41.36
2018-04-16T11:42:28.662Z,41.36
2018-04-16T11:43:38.353Z,41.27
2018-04-16T11:44:47.035Z,41.36
2018-04-16T11:45:55.671Z,41.36
2018-04-16T11:47:05.381Z,41.36
2018-04-16T11:48:15.340Z,41.27
2018-04-16T11:49:25.052Z,41.36
2018-04-16T11:50:34.503Z,41.29
2018-04-16T11:51:44.475Z,41.36
2018-04-16T11:52:53.389Z,41.17
2018-04-16T11:54:02.557Z,41.36
2018-04-16T11:55:11.736Z,41.36
2018-04-16T11:56:20.647Z,41.27
2018-04-16T11:57:30.427Z,41.29
2018-04-16T11:58:40.189Z,41.36
2018-04-16T11:59:49.364Z,41.36
2018-04-16T12:00:58.794Z,41.36
2018-04-16T12:02:07.979Z,41.27
2018-04-16T12:03:17.470Z,41.29
2018-04-16T12:04:26.752Z,41.29
2018-04-16T12:05:35.811Z,41.36
2018-04-16T12:06:45.011Z,41.36
2018-04-16T12:07:54.442Z,41.27
2018-04-16T12:09:03.864Z,41.17
2018-04-16T12:10:13.528Z,41.36
2018-04-16T12:11:23.022Z,41.27
2018-04-16T12:12:32.181Z,41.17
2018-04-16T12:13:41.595Z,41.27
2018-04-16T12:14:50.738Z,41.19
2018-04-16T12:16:00.669Z,41.27
2018-04-16T12:17:10.097Z,41.39
2018-04-16T12:18:19.516Z,41.36
2018-04-16T12:19:29.010Z,41.27
2018-04-16T12:20:38.453Z,41.17
2018-04-16T12:21:47.618Z,41.27
2018-04-16T12:22:56.783Z,41.17
2018-04-16T12:24:05.945Z,41.27
2018-04-16T12:25:15.651Z,41.46
2018-04-16T12:26:24.838Z,41.46
2018-04-16T12:27:34.627Z,41.19
2018-04-16T12:28:44.226Z,41.27
2018-04-16T12:29:53.528Z,41.27
2018-04-16T12:31:02.951Z,41.27
2018-04-16T12:32:12.362Z,41.27
2018-04-16T12:33:22.042Z,41.27
2018-04-16T12:34:30.940Z,41.27
2018-04-16T12:35:40.121Z,41.29
2018-04-16T12:36:49.654Z,41.27
2018-04-16T12:37:59.331Z,41.17
2018-04-16T12:39:08.849Z,41.17
2018-04-16T12:40:18.572Z,41.17
2018-04-16T12:41:28.259Z,41.27
2018-04-16T12:42:37.670Z,41.27
2018-04-16T12:43:47.357Z,41.46
2018-04-16T12:44:57.031Z,41.29
2018-04-16T12:46:06.955Z,41.29
2018-04-16T12:47:16.122Z,41.27
2018-04-16T12:48:25.548Z,41.27
2018-04-16T12:49:35.225Z,41.08
2018-04-16T12:50:44.937Z,41.36
2018-04-16T12:51:54.095Z,41.27
2018-04-16T12:53:03.248Z,41.17
2018-04-16T12:54:12.421Z,41.17
2018-04-16T12:55:22.100Z,41.17
2018-04-16T12:56:31.524Z,41.46
2018-04-16T12:57:40.416Z,41.27
2018-04-16T12:58:49.319Z,41.27
2018-04-16T12:59:58.486Z,41.27
2018-04-16T13:01:08.152Z,41.27
2018-04-16T13:02:17.839Z,40.98
2018-04-16T13:03:27.249Z,41.17
2018-04-16T13:04:36.676Z,41.17
2018-04-16T13:05:46.359Z,41.27
2018-04-16T13:06:55.522Z,41.17
2018-04-16T13:08:04.695Z,41.27
2018-04-16T13:09:13.865Z,41.27
2018-04-16T13:10:23.555Z,41.17
2018-04-16T13:11:33.024Z,41.17
2018-04-16T13:12:42.510Z,41.17
2018-04-16T13:13:51.947Z,41.17
2018-04-16T13:15:01.107Z,41.08
2018-04-16T13:16:10.003Z,41.09
2018-04-16T13:17:19.932Z,41.19
2018-04-16T13:18:29.344Z,41.19
2018-04-16T13:19:38.766Z,41
2018-04-16T13:20:48.179Z,41.19
2018-04-16T13:21:57.875Z,41.17
2018-04-16T13:23:07.567Z,40.98
2018-04-16T13:24:17.007Z,41.08
2018-04-16T13:25:26.417Z,41.08
2018-04-16T13:26:35.593Z,41.17
2018-04-16T13:27:45.025Z,41.29
2018-04-16T13:28:54.972Z,40.98
2018-04-16T13:30:04.132Z,41.09
2018-04-16T13:31:13.536Z,41.27
2018-04-16T13:32:22.939Z,41.08
2018-04-16T13:33:32.127Z,41.08
2018-04-16T13:34:41.540Z,41.08
2018-04-16T13:35:50.993Z,41.09
2018-04-16T13:37:00.435Z,41.27
2018-04-16T13:38:09.347Z,41.29
2018-04-16T13:39:18.250Z,41.17
2018-04-16T13:40:27.676Z,41.27
2018-04-16T13:41:36.629Z,41.27
2018-04-16T13:42:46.335Z,41.29
2018-04-16T13:43:55.504Z,41.08
2018-04-16T13:45:04.700Z,41
2018-04-16T13:46:13.863Z,41.27
2018-04-16T13:47:23.309Z,41.08
2018-04-16T13:48:32.729Z,41.08
2018-04-16T13:49:42.681Z,41.08
2018-04-16T13:50:51.850Z,41.17
2018-04-16T13:52:01.030Z,41.17
2018-04-16T13:53:10.469Z,41.17
2018-04-16T13:54:19.912Z,40.98
2018-04-16T13:55:29.597Z,41.27
2018-04-16T13:56:39.031Z,41.08
2018-04-16T13:57:48.194Z,41.27
2018-04-16T13:58:57.400Z,40.98
2018-04-16T14:00:06.330Z,41.27
2018-04-16T14:01:15.242Z,41.27
2018-04-16T14:02:24.442Z,41.08
2018-04-16T14:03:34.148Z,40.98
2018-04-16T14:04:43.324Z,41.17
2018-04-16T14:05:53.010Z,40.9
2018-04-16T14:07:01.912Z,41.08
2018-04-16T14:08:11.103Z,40.9
2018-04-16T14:09:20.541Z,40.9
2018-04-16T14:10:30.005Z,41
2018-04-16T14:11:39.432Z,41
2018-04-16T14:12:48.865Z,41
2018-04-16T14:13:58.820Z,41.09
2018-04-16T14:15:08.511Z,41.09
2018-04-16T14:16:18.173Z,41.09
2018-04-16T14:17:27.339Z,41.17
2018-04-16T14:18:37.041Z,41
2018-04-16T14:19:46.223Z,40.98
2018-04-16T14:20:55.650Z,40.9
2018-04-16T14:22:04.588Z,41
2018-04-16T14:23:14.253Z,41.09
2018-04-16T14:24:23.933Z,41
2018-04-16T14:25:33.362Z,41
2018-04-16T14:26:42.782Z,41
2018-04-16T14:27:51.955Z,41
2018-04-16T14:29:01.369Z,41
2018-04-16T14:30:10.801Z,41
2018-04-16T14:31:20.741Z,41.19
2018-04-16T14:32:29.672Z,41.09
2018-04-16T14:33:39.148Z,41.19
2018-04-16T14:34:48.100Z,41.09
2018-04-16T14:35:58.093Z,40.9
2018-04-16T14:37:07.253Z,41.09
2018-04-16T14:38:16.677Z,41
2018-04-16T14:39:27.119Z,41
2018-04-16T14:40:36.025Z,41.19
2018-04-16T14:41:45.237Z,40.71
2018-04-16T14:42:54.438Z,40.81
2018-04-16T14:44:04.112Z,40.81
2018-04-16T14:45:13.802Z,40.81
2018-04-16T14:46:23.521Z,40.9
2018-04-16T14:47:33.209Z,40.9
2018-04-16T14:48:42.630Z,40.81
2018-04-16T14:49:51.826Z,40.9
2018-04-16T14:51:01.033Z,40.81
2018-04-16T14:52:10.232Z,40.9
2018-04-16T14:53:19.433Z,40.81
2018-04-16T14:54:28.874Z,40.81
2018-04-16T14:55:38.318Z,40.71
2018-04-16T14:56:47.789Z,40.71
2018-04-16T14:57:57.007Z,40.71
2018-04-16T14:59:06.163Z,40.81
2018-04-16T15:00:15.158Z,40.81
2018-04-16T15:01:24.852Z,40.81
2018-04-16T15:02:34.516Z,40.9
2018-04-16T15:03:43.942Z,41
2018-04-16T15:04:53.624Z,40.9
2018-04-16T15:06:02.781Z,41
2018-04-16T15:07:12.490Z,41
2018-04-16T15:08:22.179Z,41
2018-04-16T15:09:31.598Z,41
2018-04-16T15:10:40.779Z,41.09
2018-04-16T15:11:50.460Z,41.09
2018-04-16T15:12:59.905Z,40.9
2018-04-16T15:14:09.338Z,41
2018-04-16T15:15:19.075Z,40.9
2018-04-16T15:16:28.505Z,41
2018-04-16T15:17:38.461Z,41.09
2018-04-16T15:18:48.141Z,41.19
2018-04-16T15:19:57.314Z,40.9
2018-04-16T15:21:06.982Z,41.09
2018-04-16T15:22:15.891Z,40.9
2018-04-16T15:23:25.321Z,41.09
2018-04-16T15:24:34.740Z,40.9
2018-04-16T15:25:44.173Z,41.09
2018-04-16T15:26:54.013Z,40.9
2018-04-16T15:28:03.705Z,40.98
2018-04-16T15:29:13.130Z,41.09
2018-04-16T15:30:22.786Z,41.29
2018-04-16T15:31:31.437Z,40.78
2018-04-16T15:32:40.873Z,40.98
2018-04-16T15:33:50.079Z,41.08
2018-04-16T15:34:59.245Z,40.9
2018-04-16T15:36:08.407Z,41
2018-04-16T15:37:18.078Z,41.08
2018-04-16T15:38:27.238Z,40.9
2018-04-16T15:39:36.748Z,41.09
2018-04-16T15:40:46.547Z,41.09
2018-04-16T15:41:55.964Z,41.09
2018-04-16T15:43:05.662Z,40.9
2018-04-16T15:44:15.357Z,41.09
2018-04-16T15:45:24.522Z,40.98
2018-04-16T15:46:34.205Z,41.09
2018-04-16T15:47:43.377Z,41.09
2018-04-16T15:48:52.525Z,40.9
2018-04-16T15:50:01.926Z,41.09
2018-04-16T15:51:11.369Z,40.9
2018-04-16T15:52:21.045Z,40.98
2018-04-16T15:53:30.483Z,41
2018-04-16T15:54:40.167Z,41.09
2018-04-16T15:55:49.586Z,41.27
2018-04-16T15:56:59.108Z,41.09
2018-04-16T15:58:08.795Z,40.9
2018-04-16T15:59:17.966Z,41.09
2018-04-16T16:00:27.162Z,40.9
2018-04-16T16:01:36.636Z,40.81
2018-04-16T16:02:46.338Z,40.9
2018-04-16T16:03:56.285Z,41.09
2018-04-16T16:05:05.447Z,40.9
2018-04-16T16:06:15.372Z,41
2018-04-16T16:07:24.837Z,41.09
2018-04-16T16:08:34.260Z,40.9
2018-04-16T16:09:43.681Z,41.09
2018-04-16T16:10:53.088Z,41.08
2018-04-16T16:12:02.524Z,41.29
2018-04-16T16:13:11.934Z,40.88
2018-04-16T16:14:21.084Z,41.09
2018-04-16T16:15:29.974Z,41.09
2018-04-16T16:16:39.388Z,41.08
2018-04-16T16:17:49.061Z,41.08
2018-04-16T16:18:58.476Z,41
2018-04-16T16:20:07.895Z,40.9
2018-04-16T16:21:17.570Z,41.08
2018-04-16T16:22:26.989Z,41
2018-04-16T16:23:36.158Z,40.88
2018-04-16T16:24:45.583Z,40.81
2018-04-16T16:25:55.261Z,40.9
2018-04-16T16:27:04.667Z,41.08
2018-04-16T16:28:14.086Z,41
2018-04-16T16:29:23.258Z,41.08
2018-04-16T16:30:32.428Z,41
2018-04-16T16:31:41.332Z,40.98
2018-04-16T16:32:50.480Z,41.08
2018-04-16T16:33:59.382Z,40.9
2018-04-16T16:35:09.045Z,41
2018-04-16T16:36:18.186Z,41
2018-04-16T16:37:27.082Z,41.08
2018-04-16T16:38:36.498Z,41.09
2018-04-16T16:39:46.173Z,40.9
2018-04-16T16:40:55.074Z,40.9
2018-04-16T16:42:04.499Z,41.09
2018-04-16T16:43:13.135Z,40.88
2018-04-16T16:44:22.809Z,41.09
2018-04-16T16:45:32.243Z,41.09
2018-04-16T16:46:41.144Z,41.08
2018-04-16T16:47:50.308Z,40.9
2018-04-16T16:48:59.472Z,41.09
2018-04-16T16:50:09.162Z,41.08
2018-04-16T16:51:18.576Z,41.08
2018-04-16T16:52:28.515Z,41
2018-04-16T16:53:37.703Z,41.08
2018-04-16T16:54:47.361Z,40.98
2018-04-16T16:55:56.255Z,41
2018-04-16T16:57:05.411Z,40.9
2018-04-16T16:58:14.573Z,40.88
2018-04-16T16:59:23.721Z,41.09
2018-04-16T17:00:33.139Z,41.09
2018-04-16T17:01:42.328Z,41
2018-04-16T17:02:51.743Z,41.09
2018-04-16T17:04:01.146Z,41.08
2018-04-16T17:05:10.382Z,41
2018-04-16T17:06:19.570Z,40.98
2018-04-16T17:07:29.241Z,40.98
2018-04-16T17:08:37.883Z,40.98
2018-04-16T17:09:47.297Z,41.09
2018-04-16T17:10:56.736Z,40.98
2018-04-16T17:12:06.402Z,40.98
2018-04-16T17:13:16.090Z,40.98
2018-04-16T17:14:25.535Z,40.9
2018-04-16T17:15:35.237Z,40.88
2018-04-16T17:16:44.917Z,40.88
2018-04-16T17:17:54.133Z,41
2018-04-16T17:19:03.029Z,40.88
2018-04-16T17:20:12.236Z,41.09
2018-04-16T17:21:21.789Z,41
2018-04-16T17:22:31.455Z,41.08
2018-04-16T17:23:40.625Z,40.88
2018-04-16T17:24:50.564Z,40.78
2018-04-16T17:25:59.986Z,40.78
2018-04-16T17:27:09.671Z,40.9
2018-04-16T17:28:19.342Z,40.88
2018-04-16T17:29:28.756Z,40.88
2018-04-16T17:30:38.190Z,40.9
2018-04-16T17:31:48.143Z,41
2018-04-16T17:32:57.850Z,40.78
2018-04-16T17:34:07.033Z,40.88
2018-04-16T17:35:16.177Z,41.08
2018-04-16T17:36:25.625Z,40.98
2018-04-16T17:37:35.852Z,40.98
2018-04-16T17:38:45.305Z,41.09
2018-04-16T17:39:54.725Z,40.81
2018-04-16T17:41:04.159Z,41.09
2018-04-16T17:42:14.004Z,40.59
2018-04-16T17:43:24.036Z,40.69
2018-04-16T17:44:33.461Z,41.08
2018-04-16T17:45:42.888Z,41.19
2018-04-16T17:46:52.807Z,40.88
2018-04-16T17:48:01.698Z,40.98
2018-04-16T17:49:10.866Z,40.98
2018-04-16T17:50:20.027Z,40.69
2018-04-16T17:51:29.727Z,40.69
2018-04-16T17:52:38.921Z,40.69
2018-04-16T17:53:48.882Z,40.98
2018-04-16T17:54:58.560Z,40.98
2018-04-16T17:56:08.101Z,40.98
2018-04-16T17:57:17.801Z,40.78
2018-04-16T17:58:27.224Z,41
2018-04-16T17:59:36.670Z,40.69
2018-04-16T18:00:46.098Z,40.71
2018-04-16T18:01:55.799Z,40.88
2018-04-16T18:03:05.228Z,40.78
2018-04-16T18:04:14.802Z,40.78
2018-04-16T18:05:24.610Z,40.78
2018-04-16T18:06:33.511Z,40.88
2018-04-16T18:07:42.939Z,40.88
2018-04-16T18:08:52.607Z,40.88
2018-04-16T18:10:02.284Z,40.71
2018-04-16T18:11:11.941Z,40.88
2018-04-16T18:12:21.099Z,40.88
2018-04-16T18:13:30.780Z,40.71
2018-04-16T18:14:40.545Z,40.88
2018-04-16T18:15:50.045Z,40.69
2018-04-16T18:16:59.486Z,40.69
2018-04-16T18:18:08.923Z,41.08
2018-04-16T18:19:18.080Z,41.08
2018-04-16T18:20:26.984Z,40.88
2018-04-16T18:21:36.410Z,40.78
2018-04-16T18:22:45.898Z,40.69
2018-04-16T18:23:55.590Z,40.78
2018-04-16T18:25:04.742Z,40.78
2018-04-16T18:26:13.659Z,40.88
2018-04-16T18:27:23.067Z,40.71
2018-04-16T18:28:32.739Z,40.59
2018-04-16T18:29:41.408Z,40.81
2018-04-16T18:30:51.065Z,40.78
2018-04-16T18:32:00.493Z,40.9
2018-04-16T18:33:09.405Z,40.88
2018-04-16T18:34:18.605Z,40.69
2018-04-16T18:35:27.825Z,40.78
2018-04-16T18:36:37.256Z,40.88
2018-04-16T18:37:46.430Z,40.88
2018-04-16T18:38:55.858Z,40.69
2018-04-16T18:40:05.030Z,40.9
2018-04-16T18:41:14.285Z,40.88
2018-04-16T18:42:23.703Z,40.69
2018-04-16T18:43:32.876Z,40.69
2018-04-16T18:44:42.560Z,40.88
2018-04-16T18:45:51.734Z,40.78
2018-04-16T18:47:01.161Z,40.69
2018-04-16T18:48:10.425Z,40.78
2018-04-16T18:49:20.016Z,40.88
2018-04-16T18:50:29.209Z,40.88
2018-04-16T18:51:38.898Z,40.88
2018-04-16T18:52:48.842Z,40.78
2018-04-16T18:53:58.518Z,40.71
2018-04-16T18:55:07.709Z,40.78
2018-04-16T18:56:17.415Z,40.78
2018-04-16T18:57:26.843Z,40.88
2018-04-16T18:58:36.256Z,40.69
2018-04-16T18:59:46.198Z,40.9
2018-04-16T19:00:55.629Z,40.88
2018-04-16T19:02:04.794Z,40.69
2018-04-16T19:03:14.271Z,40.78
2018-04-16T19:04:23.702Z,40.88
2018-04-16T19:05:33.391Z,40.69
2018-04-16T19:06:43.121Z,40.78
2018-04-16T19:07:52.822Z,40.78
2018-04-16T19:09:02.778Z,40.88
2018-04-16T19:10:11.429Z,40.78
2018-04-16T19:11:21.163Z,40.81
2018-04-16T19:12:31.145Z,40.78
2018-04-16T19:13:41.090Z,40.81
2018-04-16T19:14:50.790Z,40.78
2018-04-16T19:16:00.314Z,40.78
2018-04-16T19:17:10.247Z,40.78
2018-04-16T19:18:19.401Z,40.78
2018-04-16T19:19:29.078Z,40.88
2018-04-16T19:20:38.233Z,40.78
2018-04-16T19:21:47.386Z,40.78
2018-04-16T19:22:56.806Z,40.88
2018-04-16T19:24:06.226Z,40.78
2018-04-16T19:25:15.918Z,40.78
2018-04-16T19:26:25.341Z,40.78
2018-04-16T19:27:35.011Z,40.78
2018-04-16T19:28:44.445Z,40.78
2018-04-16T19:29:54.122Z,40.78
2018-04-16T19:31:03.020Z,40.78
2018-04-16T19:32:12.433Z,40.78
2018-04-16T19:33:21.620Z,40.78
2018-04-16T19:34:31.077Z,40.78
2018-04-16T19:35:40.254Z,40.69
2018-04-16T19:36:49.684Z,40.69
2018-04-16T19:37:58.850Z,40.88
2018-04-16T19:39:08.281Z,40.78
2018-04-16T19:40:17.176Z,40.69
2018-04-16T19:41:26.595Z,40.78
2018-04-16T19:42:36.290Z,40.78